sensor_id;sensor_type;location;lat;lon;timestamp;pressure;altitude;pressure_sealevel;temperature;humidity
30081;BME280;16902;50.816;12.828;2023-10-13T00:04:22;97710.78;;;15.02;100.00
30081;BME280;16902;50.816;12.828;2023-10-13T00:09:26;97718.06;;;15.00;100.00
30081;BME280;16902;50.816;12.828;2023-10-13T00:14:33;97718.88;;;15.00;100.00
30081;BME280;16902;50.816;12.828;2023-10-13T00:19:37;97728.34;;;15.01;100.00
30081;BME280;16902;50.816;12.828;2023-10-13T00:24:40;97728.94;;;15.03;100.00
30081;BME280;16902;50.816;12.828;2023-10-13T00:29:50;97719.44;;;15.09;100.00
30081;BME280;16902;50.816;12.828;2023-10-13T00:34:52;97722.69;;;15.04;100.00
30081;BME280;16902;50.816;12.828;2023-10-13T00:39:58;97719.91;;;14.99;100.00
30081;BME280;16902;50.816;12.828;2023-10-13T00:45:02;97721.06;;;15.03;100.00
30081;BME280;16902;50.816;12.828;2023-10-13T00:50:05;97724.31;;;15.05;100.00
30081;BME280;16902;50.816;12.828;2023-10-13T00:55:08;97718.00;;;15.13;100.00
30081;BME280;16902;50.816;12.828;2023-10-13T01:00:11;97716.19;;;15.13;100.00
30081;BME280;16902;50.816;12.828;2023-10-13T01:05:26;97716.78;;;15.15;100.00
30081;BME280;16902;50.816;12.828;2023-10-13T01:10:29;97718.81;;;15.13;100.00
30081;BME280;16902;50.816;12.828;2023-10-13T01:15:34;97731.09;;;15.20;100.00
30081;BME280;16902;50.816;12.828;2023-10-13T01:20:36;97747.06;;;15.11;100.00
30081;BME280;16902;50.816;12.828;2023-10-13T01:25:45;97742.00;;;15.16;100.00
30081;BME280;16902;50.816;12.828;2023-10-13T01:30:47;97738.34;;;15.24;100.00
30081;BME280;16902;50.816;12.828;2023-10-13T01:35:52;97735.03;;;15.35;100.00
30081;BME280;16902;50.816;12.828;2023-10-13T01:40:56;97730.63;;;15.29;100.00
30081;BME280;16902;50.816;12.828;2023-10-13T01:46:01;97730.00;;;15.34;100.00
30081;BME280;16902;50.816;12.828;2023-10-13T01:51:05;97722.56;;;15.31;100.00
30081;BME280;16902;50.816;12.828;2023-10-13T01:56:11;97722.59;;;15.24;100.00
30081;BME280;16902;50.816;12.828;2023-10-13T02:01:13;97712.13;;;15.17;100.00
30081;BME280;16902;50.816;12.828;2023-10-13T02:06:15;97713.66;;;15.32;100.00
30081;BME280;16902;50.816;12.828;2023-10-13T02:11:25;97713.28;;;15.28;100.00
30081;BME280;16902;50.816;12.828;2023-10-13T02:16:27;97708.84;;;15.29;100.00
30081;BME280;16902;50.816;12.828;2023-10-13T02:21:30;97712.28;;;15.23;100.00
30081;BME280;16902;50.816;12.828;2023-10-13T02:26:33;97715.31;;;15.26;100.00
30081;BME280;16902;50.816;12.828;2023-10-13T02:31:42;97716.09;;;15.33;100.00
30081;BME280;16902;50.816;12.828;2023-10-13T02:36:44;97708.41;;;15.32;100.00
30081;BME280;16902;50.816;12.828;2023-10-13T02:41:56;97697.13;;;15.31;100.00
30081;BME280;16902;50.816;12.828;2023-10-13T02:46:58;97694.09;;;15.28;100.00
30081;BME280;16902;50.816;12.828;2023-10-13T02:52:00;97700.59;;;15.25;100.00
30081;BME280;16902;50.816;12.828;2023-10-13T02:57:09;97684.00;;;15.31;100.00
30081;BME280;16902;50.816;12.828;2023-10-13T03:02:12;97680.81;;;15.29;100.00
30081;BME280;16902;50.816;12.828;2023-10-13T03:07:31;97673.78;;;15.23;100.00
30081;BME280;16902;50.816;12.828;2023-10-13T03:12:33;97667.19;;;15.14;100.00
30081;BME280;16902;50.816;12.828;2023-10-13T03:17:35;97679.78;;;15.30;100.00
30081;BME280;16902;50.816;12.828;2023-10-13T03:22:37;97670.25;;;15.36;100.00
30081;BME280;16902;50.816;12.828;2023-10-13T03:27:39;97668.25;;;15.38;100.00
30081;BME280;16902;50.816;12.828;2023-10-13T03:32:53;97666.50;;;15.25;100.00
30081;BME280;16902;50.816;12.828;2023-10-13T03:37:58;97659.19;;;15.34;100.00
30081;BME280;16902;50.816;12.828;2023-10-13T03:42:59;97652.59;;;15.25;100.00
30081;BME280;16902;50.816;12.828;2023-10-13T03:48:17;97653.84;;;15.15;100.00
30081;BME280;16902;50.816;12.828;2023-10-13T03:53:30;97647.47;;;15.05;100.00
30081;BME280;16902;50.816;12.828;2023-10-13T03:58:36;97643.59;;;15.07;100.00
30081;BME280;16902;50.816;12.828;2023-10-13T04:03:40;97648.44;;;15.10;100.00
30081;BME280;16902;50.816;12.828;2023-10-13T04:08:58;97644.63;;;15.06;100.00
30081;BME280;16902;50.816;12.828;2023-10-13T04:14:19;97637.22;;;14.97;100.00
30081;BME280;16902;50.816;12.828;2023-10-13T04:19:46;97645.81;;;15.10;100.00
30081;BME280;16902;50.816;12.828;2023-10-13T04:25:06;97636.38;;;15.03;100.00
30081;BME280;16902;50.816;12.828;2023-10-13T04:30:28;97626.16;;;14.88;100.00
30081;BME280;16902;50.816;12.828;2023-10-13T04:35:45;97630.94;;;14.98;100.00
30081;BME280;16902;50.816;12.828;2023-10-13T04:40:59;97643.41;;;15.09;100.00
30081;BME280;16902;50.816;12.828;2023-10-13T04:46:03;97630.72;;;15.06;100.00
30081;BME280;16902;50.816;12.828;2023-10-13T04:51:29;97630.47;;;15.14;100.00
30081;BME280;16902;50.816;12.828;2023-10-13T04:56:52;97630.81;;;15.24;100.00
30081;BME280;16902;50.816;12.828;2023-10-13T05:02:12;97627.41;;;15.17;100.00
30081;BME280;16902;50.816;12.828;2023-10-13T05:07:41;97628.22;;;15.17;100.00
30081;BME280;16902;50.816;12.828;2023-10-13T05:13:01;97625.34;;;15.26;100.00
30081;BME280;16902;50.816;12.828;2023-10-13T05:18:22;97626.53;;;15.30;100.00
30081;BME280;16902;50.816;12.828;2023-10-13T05:23:42;97629.94;;;15.30;100.00
30081;BME280;16902;50.816;12.828;2023-10-13T05:29:03;97621.69;;;15.27;100.00
30081;BME280;16902;50.816;12.828;2023-10-13T05:34:29;97630.97;;;15.29;100.00
30081;BME280;16902;50.816;12.828;2023-10-13T05:39:50;97629.56;;;15.27;100.00
30081;BME280;16902;50.816;12.828;2023-10-13T05:45:10;97637.59;;;15.32;100.00
30081;BME280;16902;50.816;12.828;2023-10-13T05:50:26;97628.50;;;15.34;100.00
30081;BME280;16902;50.816;12.828;2023-10-13T05:55:30;97633.03;;;15.52;100.00
30081;BME280;16902;50.816;12.828;2023-10-13T06:00:53;97635.34;;;15.60;100.00
30081;BME280;16902;50.816;12.828;2023-10-13T06:06:14;97647.22;;;15.70;100.00
30081;BME280;16902;50.816;12.828;2023-10-13T06:11:34;97636.25;;;15.79;100.00
30081;BME280;16902;50.816;12.828;2023-10-13T06:16:54;97635.59;;;15.84;100.00
30081;BME280;16902;50.816;12.828;2023-10-13T06:22:17;97632.25;;;15.95;100.00
30081;BME280;16902;50.816;12.828;2023-10-13T06:27:37;97644.81;;;15.93;100.00
30081;BME280;16902;50.816;12.828;2023-10-13T06:32:57;97651.59;;;16.19;100.00
30081;BME280;16902;50.816;12.828;2023-10-13T06:37:59;97653.00;;;16.22;100.00
30081;BME280;16902;50.816;12.828;2023-10-13T06:43:02;97653.50;;;16.49;100.00
30081;BME280;16902;50.816;12.828;2023-10-13T06:48:15;97647.97;;;16.57;100.00
30081;BME280;16902;50.816;12.828;2023-10-13T06:53:19;97639.19;;;16.63;100.00
30081;BME280;16902;50.816;12.828;2023-10-13T06:58:21;97635.25;;;16.72;100.00
30081;BME280;16902;50.816;12.828;2023-10-13T07:03:26;97636.00;;;16.79;100.00
30081;BME280;16902;50.816;12.828;2023-10-13T07:08:28;97636.97;;;16.96;100.00
30081;BME280;16902;50.816;12.828;2023-10-13T07:13:32;97634.75;;;17.12;100.00
30081;BME280;16902;50.816;12.828;2023-10-13T07:18:40;97636.84;;;17.21;100.00
30081;BME280;16902;50.816;12.828;2023-10-13T07:23:51;97628.84;;;17.40;100.00
30081;BME280;16902;50.816;12.828;2023-10-13T07:29:02;97624.88;;;17.61;100.00
30081;BME280;16902;50.816;12.828;2023-10-13T07:34:04;97616.19;;;17.60;100.00
30081;BME280;16902;50.816;12.828;2023-10-13T07:39:14;97616.78;;;17.74;100.00
30081;BME280;16902;50.816;12.828;2023-10-13T07:44:24;97615.19;;;17.96;100.00
30081;BME280;16902;50.816;12.828;2023-10-13T07:49:38;97610.38;;;18.05;100.00
30081;BME280;16902;50.816;12.828;2023-10-13T07:54:42;97606.13;;;18.04;100.00
30081;BME280;16902;50.816;12.828;2023-10-13T07:59:45;97593.19;;;18.14;100.00
30081;BME280;16902;50.816;12.828;2023-10-13T08:04:52;97598.06;;;18.22;100.00
30081;BME280;16902;50.816;12.828;2023-10-13T08:09:54;97592.28;;;18.49;100.00
30081;BME280;16902;50.816;12.828;2023-10-13T08:14:59;97594.59;;;18.86;100.00
30081;BME280;16902;50.816;12.828;2023-10-13T08:20:13;97597.72;;;18.99;100.00
30081;BME280;16902;50.816;12.828;2023-10-13T08:25:18;97590.88;;;19.15;100.00
30081;BME280;16902;50.816;12.828;2023-10-13T08:30:26;97575.91;;;19.21;100.00
30081;BME280;16902;50.816;12.828;2023-10-13T08:35:30;97576.47;;;19.23;100.00
30081;BME280;16902;50.816;12.828;2023-10-13T08:40:32;97577.94;;;19.31;100.00
30081;BME280;16902;50.816;12.828;2023-10-13T08:45:54;97588.53;;;19.02;100.00
30081;BME280;16902;50.816;12.828;2023-10-13T08:51:00;97582.88;;;19.10;100.00
30081;BME280;16902;50.816;12.828;2023-10-13T08:56:08;97586.69;;;19.03;100.00
30081;BME280;16902;50.816;12.828;2023-10-13T09:01:17;97585.53;;;18.82;100.00
30081;BME280;16902;50.816;12.828;2023-10-13T09:06:38;97584.97;;;18.80;100.00
30081;BME280;16902;50.816;12.828;2023-10-13T09:11:42;97585.47;;;18.77;100.00
30081;BME280;16902;50.816;12.828;2023-10-13T09:16:51;97577.66;;;18.70;100.00
30081;BME280;16902;50.816;12.828;2023-10-13T09:22:09;97577.91;;;18.68;100.00
30081;BME280;16902;50.816;12.828;2023-10-13T09:27:21;97567.94;;;18.59;100.00
30081;BME280;16902;50.816;12.828;2023-10-13T09:32:28;97577.13;;;18.56;100.00
30081;BME280;16902;50.816;12.828;2023-10-13T09:37:31;97571.38;;;18.59;100.00
30081;BME280;16902;50.816;12.828;2023-10-13T09:42:35;97560.44;;;18.79;100.00
30081;BME280;16902;50.816;12.828;2023-10-13T09:47:39;97555.75;;;18.98;100.00
30081;BME280;16902;50.816;12.828;2023-10-13T09:52:45;97560.22;;;18.97;100.00
30081;BME280;16902;50.816;12.828;2023-10-13T09:57:53;97555.28;;;19.01;100.00
30081;BME280;16902;50.816;12.828;2023-10-13T10:03:01;97561.19;;;19.08;100.00
30081;BME280;16902;50.816;12.828;2023-10-13T10:08:25;97546.47;;;19.12;100.00
30081;BME280;16902;50.816;12.828;2023-10-13T10:19:05;97548.16;;;19.69;100.00
30081;BME280;16902;50.816;12.828;2023-10-13T10:24:21;97540.38;;;20.01;100.00
30081;BME280;16902;50.816;12.828;2023-10-13T10:29:53;97544.50;;;20.58;100.00
30081;BME280;16902;50.816;12.828;2023-10-13T10:35:03;97525.19;;;20.84;100.00
30081;BME280;16902;50.816;12.828;2023-10-13T10:40:17;97518.78;;;21.44;100.00
30081;BME280;16902;50.816;12.828;2023-10-13T10:45:46;97509.94;;;22.33;100.00
30081;BME280;16902;50.816;12.828;2023-10-13T10:50:51;97500.41;;;22.53;100.00
30081;BME280;16902;50.816;12.828;2023-10-13T10:56:04;97490.91;;;22.82;100.00
30081;BME280;16902;50.816;12.828;2023-10-13T11:01:06;97494.06;;;21.76;100.00
30081;BME280;16902;50.816;12.828;2023-10-13T11:06:24;97486.66;;;21.36;100.00
30081;BME280;16902;50.816;12.828;2023-10-13T11:11:30;97480.13;;;21.48;100.00
30081;BME280;16902;50.816;12.828;2023-10-13T11:16:37;97477.47;;;21.43;100.00
30081;BME280;16902;50.816;12.828;2023-10-13T11:21:39;97470.56;;;21.37;100.00
30081;BME280;16902;50.816;12.828;2023-10-13T11:26:41;97456.56;;;21.10;100.00
30081;BME280;16902;50.816;12.828;2023-10-13T11:31:51;97450.69;;;21.02;100.00
30081;BME280;16902;50.816;12.828;2023-10-13T11:37:00;97445.88;;;20.94;100.00
30081;BME280;16902;50.816;12.828;2023-10-13T11:42:22;97444.63;;;21.44;100.00
30081;BME280;16902;50.816;12.828;2023-10-13T11:47:24;97425.56;;;22.15;100.00
30081;BME280;16902;50.816;12.828;2023-10-13T11:52:49;97419.66;;;21.98;100.00
30081;BME280;16902;50.816;12.828;2023-10-13T11:57:52;97417.38;;;22.37;100.00
30081;BME280;16902;50.816;12.828;2023-10-13T12:02:53;97406.38;;;23.56;100.00
30081;BME280;16902;50.816;12.828;2023-10-13T12:08:14;97406.38;;;24.55;82.26
30081;BME280;16902;50.816;12.828;2023-10-13T12:13:23;97393.06;;;26.42;63.12
30081;BME280;16902;50.816;12.828;2023-10-13T12:18:26;97389.81;;;25.45;61.52
30081;BME280;16902;50.816;12.828;2023-10-13T12:23:29;97389.34;;;24.51;65.28
30081;BME280;16902;50.816;12.828;2023-10-13T12:28:33;97377.75;;;23.27;77.64
30081;BME280;16902;50.816;12.828;2023-10-13T12:33:42;97364.00;;;23.10;100.00
30081;BME280;16902;50.816;12.828;2023-10-13T12:38:44;97360.31;;;22.80;100.00
30081;BME280;16902;50.816;12.828;2023-10-13T12:43:49;97375.97;;;22.67;100.00
30081;BME280;16902;50.816;12.828;2023-10-13T12:49:24;97368.47;;;23.25;92.86
30081;BME280;16902;50.816;12.828;2023-10-13T12:55:00;97361.41;;;24.53;77.51
30081;BME280;16902;50.816;12.828;2023-10-13T13:00:10;97352.47;;;24.97;74.95
30081;BME280;16902;50.816;12.828;2023-10-13T13:05:23;97348.81;;;25.17;66.33
30081;BME280;16902;50.816;12.828;2023-10-13T13:10:30;97337.97;;;25.08;66.77
30081;BME280;16902;50.816;12.828;2023-10-13T13:15:38;97328.59;;;25.16;69.51
30081;BME280;16902;50.816;12.828;2023-10-13T13:20:40;97329.03;;;24.70;65.40
30081;BME280;16902;50.816;12.828;2023-10-13T13:25:55;97315.06;;;24.83;68.55
30081;BME280;16902;50.816;12.828;2023-10-13T13:30:59;97302.03;;;24.24;62.15
30081;BME280;16902;50.816;12.828;2023-10-13T13:36:01;97304.34;;;23.96;58.39
30081;BME280;16902;50.816;12.828;2023-10-13T13:41:02;97298.28;;;23.91;57.92
30081;BME280;16902;50.816;12.828;2023-10-13T13:46:10;97291.59;;;23.93;54.45
30081;BME280;16902;50.816;12.828;2023-10-13T13:51:12;97282.22;;;24.06;56.41
30081;BME280;16902;50.816;12.828;2023-10-13T13:56:21;97260.88;;;23.77;53.96
30081;BME280;16902;50.816;12.828;2023-10-13T14:01:26;97276.38;;;23.70;56.17
30081;BME280;16902;50.816;12.828;2023-10-13T14:06:28;97266.28;;;23.67;56.20
30081;BME280;16902;50.816;12.828;2023-10-13T14:11:31;97261.00;;;23.56;56.06
30081;BME280;16902;50.816;12.828;2023-10-13T14:16:42;97267.25;;;23.31;56.35
30081;BME280;16902;50.816;12.828;2023-10-13T14:21:49;97266.75;;;23.24;56.53
30081;BME280;16902;50.816;12.828;2023-10-13T14:26:56;97258.97;;;23.38;56.04
30081;BME280;16902;50.816;12.828;2023-10-13T14:31:58;97255.59;;;23.22;56.77
30081;BME280;16902;50.816;12.828;2023-10-13T14:37:00;97243.75;;;22.99;58.12
30081;BME280;16902;50.816;12.828;2023-10-13T14:42:02;97238.22;;;22.80;59.73
30081;BME280;16902;50.816;12.828;2023-10-13T14:47:07;97235.59;;;22.70;61.06
30081;BME280;16902;50.816;12.828;2023-10-13T14:52:11;97226.88;;;22.65;60.06
30081;BME280;16902;50.816;12.828;2023-10-13T14:57:13;97211.22;;;22.63;60.19
30081;BME280;16902;50.816;12.828;2023-10-13T15:02:15;97208.78;;;22.72;59.41
30081;BME280;16902;50.816;12.828;2023-10-13T15:07:17;97206.34;;;22.86;59.02
30081;BME280;16902;50.816;12.828;2023-10-13T15:12:19;97209.78;;;22.96;57.69
30081;BME280;16902;50.816;12.828;2023-10-13T15:17:26;97202.38;;;22.88;56.46
30081;BME280;16902;50.816;12.828;2023-10-13T15:22:30;97200.84;;;22.67;58.16
30081;BME280;16902;50.816;12.828;2023-10-13T15:27:32;97204.09;;;22.38;59.23
30081;BME280;16902;50.816;12.828;2023-10-13T15:32:44;97210.25;;;22.13;62.49
30081;BME280;16902;50.816;12.828;2023-10-13T15:37:46;97209.97;;;21.89;66.49
30081;BME280;16902;50.816;12.828;2023-10-13T15:42:53;97212.63;;;21.74;72.69
30081;BME280;16902;50.816;12.828;2023-10-13T15:48:03;97204.41;;;21.40;86.73
30081;BME280;16902;50.816;12.828;2023-10-13T15:53:19;97201.13;;;21.22;93.83
30081;BME280;16902;50.816;12.828;2023-10-13T15:58:20;97199.31;;;21.18;98.37
30081;BME280;16902;50.816;12.828;2023-10-13T16:03:24;97195.00;;;20.96;100.00
30081;BME280;16902;50.816;12.828;2023-10-13T16:08:29;97195.97;;;20.70;100.00
30081;BME280;16902;50.816;12.828;2023-10-13T16:13:36;97193.50;;;20.53;100.00
30081;BME280;16902;50.816;12.828;2023-10-13T16:18:38;97192.56;;;20.32;100.00
30081;BME280;16902;50.816;12.828;2023-10-13T16:23:39;97189.97;;;20.42;100.00
30081;BME280;16902;50.816;12.828;2023-10-13T16:28:41;97194.56;;;20.57;99.46
30081;BME280;16902;50.816;12.828;2023-10-13T16:33:43;97184.31;;;20.66;94.08
30081;BME280;16902;50.816;12.828;2023-10-13T16:38:45;97186.13;;;20.60;95.25
30081;BME280;16902;50.816;12.828;2023-10-13T16:43:47;97188.00;;;20.22;100.00
30081;BME280;16902;50.816;12.828;2023-10-13T16:48:49;97184.78;;;20.15;100.00
30081;BME280;16902;50.816;12.828;2023-10-13T16:53:51;97185.75;;;19.99;100.00
30081;BME280;16902;50.816;12.828;2023-10-13T16:58:52;97188.84;;;19.91;100.00
30081;BME280;16902;50.816;12.828;2023-10-13T17:03:58;97182.75;;;19.85;100.00
30081;BME280;16902;50.816;12.828;2023-10-13T17:09:00;97167.72;;;19.59;100.00
30081;BME280;16902;50.816;12.828;2023-10-13T17:14:01;97164.66;;;19.13;100.00
30081;BME280;16902;50.816;12.828;2023-10-13T17:19:07;97166.19;;;18.82;100.00
30081;BME280;16902;50.816;12.828;2023-10-13T17:24:09;97152.78;;;18.44;100.00
30081;BME280;16902;50.816;12.828;2023-10-13T17:29:12;97146.72;;;18.44;100.00
30081;BME280;16902;50.816;12.828;2023-10-13T17:34:14;97137.59;;;18.95;100.00
30081;BME280;16902;50.816;12.828;2023-10-13T17:39:18;97136.50;;;19.50;100.00
30081;BME280;16902;50.816;12.828;2023-10-13T17:44:20;97122.09;;;19.63;100.00
30081;BME280;16902;50.816;12.828;2023-10-13T17:49:26;97122.19;;;19.73;100.00
30081;BME280;16902;50.816;12.828;2023-10-13T17:54:28;97119.00;;;19.76;100.00
30081;BME280;16902;50.816;12.828;2023-10-13T17:59:35;97115.56;;;19.76;100.00
30081;BME280;16902;50.816;12.828;2023-10-13T18:04:37;97109.78;;;19.79;100.00
30081;BME280;16902;50.816;12.828;2023-10-13T18:09:39;97106.03;;;19.70;100.00
30081;BME280;16902;50.816;12.828;2023-10-13T18:14:44;97097.03;;;19.66;100.00
30081;BME280;16902;50.816;12.828;2023-10-13T18:19:46;97090.66;;;19.62;100.00
30081;BME280;16902;50.816;12.828;2023-10-13T18:24:48;97082.78;;;19.72;100.00
30081;BME280;16902;50.816;12.828;2023-10-13T18:29:50;97083.44;;;19.89;100.00
30081;BME280;16902;50.816;12.828;2023-10-13T18:34:52;97083.72;;;19.93;100.00
30081;BME280;16902;50.816;12.828;2023-10-13T18:39:56;97081.06;;;19.88;100.00
30081;BME280;16902;50.816;12.828;2023-10-13T18:44:57;97081.78;;;19.78;100.00
30081;BME280;16902;50.816;12.828;2023-10-13T18:49:59;97076.66;;;19.61;100.00
30081;BME280;16902;50.816;12.828;2023-10-13T18:55:03;97069.31;;;19.36;100.00
30081;BME280;16902;50.816;12.828;2023-10-13T19:00:07;97068.47;;;18.98;100.00
30081;BME280;16902;50.816;12.828;2023-10-13T19:05:09;97068.91;;;18.90;100.00
30081;BME280;16902;50.816;12.828;2023-10-13T19:10:11;97059.38;;;18.84;100.00
30081;BME280;16902;50.816;12.828;2023-10-13T19:15:18;97054.03;;;18.52;100.00
30081;BME280;16902;50.816;12.828;2023-10-13T19:20:26;97052.63;;;18.01;100.00
30081;BME280;16902;50.816;12.828;2023-10-13T19:25:35;97044.25;;;17.65;100.00
30081;BME280;16902;50.816;12.828;2023-10-13T19:30:40;97034.72;;;17.64;100.00
30081;BME280;16902;50.816;12.828;2023-10-13T19:35:44;97038.13;;;17.42;100.00
30081;BME280;16902;50.816;12.828;2023-10-13T19:40:46;97030.53;;;17.29;100.00
30081;BME280;16902;50.816;12.828;2023-10-13T19:45:48;97025.09;;;17.53;100.00
30081;BME280;16902;50.816;12.828;2023-10-13T19:50:51;97012.63;;;17.82;100.00
30081;BME280;16902;50.816;12.828;2023-10-13T19:55:56;97007.47;;;17.92;100.00
30081;BME280;16902;50.816;12.828;2023-10-13T20:01:06;96998.25;;;17.89;100.00
30081;BME280;16902;50.816;12.828;2023-10-13T20:06:09;96989.41;;;18.01;100.00
30081;BME280;16902;50.816;12.828;2023-10-13T20:11:10;96980.59;;;18.12;100.00
30081;BME280;16902;50.816;12.828;2023-10-13T20:16:15;96977.63;;;18.57;100.00
30081;BME280;16902;50.816;12.828;2023-10-13T20:21:28;96973.06;;;19.07;100.00
30081;BME280;16902;50.816;12.828;2023-10-13T20:26:31;96969.06;;;19.46;82.37
30081;BME280;16902;50.816;12.828;2023-10-13T20:31:47;96961.56;;;19.65;79.44
30081;BME280;16902;50.816;12.828;2023-10-13T20:36:50;96956.28;;;19.70;75.06
30081;BME280;16902;50.816;12.828;2023-10-13T20:41:57;96943.69;;;19.88;70.58
30081;BME280;16902;50.816;12.828;2023-10-13T20:46:59;96928.38;;;19.95;66.68
30081;BME280;16902;50.816;12.828;2023-10-13T20:52:00;96924.97;;;20.10;64.70
30081;BME280;16902;50.816;12.828;2023-10-13T20:57:09;96926.63;;;20.31;60.26
30081;BME280;16902;50.816;12.828;2023-10-13T21:02:12;96928.72;;;20.39;60.13
30081;BME280;16902;50.816;12.828;2023-10-13T21:07:15;96922.94;;;20.42;60.53
30081;BME280;16902;50.816;12.828;2023-10-13T21:12:20;96923.13;;;20.15;62.43
30081;BME280;16902;50.816;12.828;2023-10-13T21:17:21;96907.81;;;20.07;62.36
30081;BME280;16902;50.816;12.828;2023-10-13T21:22:23;96904.91;;;20.14;60.72
30081;BME280;16902;50.816;12.828;2023-10-13T21:27:25;96889.34;;;20.17;59.76
30081;BME280;16902;50.816;12.828;2023-10-13T21:32:27;96871.63;;;20.23;58.33
30081;BME280;16902;50.816;12.828;2023-10-13T21:37:30;96871.63;;;20.28;58.62
30081;BME280;16902;50.816;12.828;2023-10-13T21:42:33;96858.97;;;20.45;57.00
30081;BME280;16902;50.816;12.828;2023-10-13T21:47:34;96856.06;;;20.52;55.85
30081;BME280;16902;50.816;12.828;2023-10-13T21:52:36;96858.44;;;20.48;57.06
30081;BME280;16902;50.816;12.828;2023-10-13T21:57:38;96853.91;;;20.39;57.89
30081;BME280;16902;50.816;12.828;2023-10-13T22:02:40;96847.31;;;20.36;57.07
30081;BME280;16902;50.816;12.828;2023-10-13T22:07:45;96842.81;;;20.26;57.12
30081;BME280;16902;50.816;12.828;2023-10-13T22:12:49;96826.19;;;20.31;56.33
30081;BME280;16902;50.816;12.828;2023-10-13T22:17:51;96823.53;;;20.36;55.55
30081;BME280;16902;50.816;12.828;2023-10-13T22:22:53;96831.22;;;20.48;55.24
30081;BME280;16902;50.816;12.828;2023-10-13T22:27:55;96824.84;;;20.54;55.08
30081;BME280;16902;50.816;12.828;2023-10-13T22:32:57;96824.34;;;20.52;55.12
30081;BME280;16902;50.816;12.828;2023-10-13T22:37:59;96820.63;;;20.48;55.32
30081;BME280;16902;50.816;12.828;2023-10-13T22:43:01;96818.75;;;20.33;56.93
30081;BME280;16902;50.816;12.828;2023-10-13T22:48:04;96811.34;;;20.35;56.48
30081;BME280;16902;50.816;12.828;2023-10-13T22:53:06;96805.25;;;20.40;56.18
30081;BME280;16902;50.816;12.828;2023-10-13T22:58:09;96802.09;;;20.38;56.38
30081;BME280;16902;50.816;12.828;2023-10-13T23:03:12;96802.38;;;20.31;56.63
30081;BME280;16902;50.816;12.828;2023-10-13T23:08:22;96799.72;;;20.21;56.56
30081;BME280;16902;50.816;12.828;2023-10-13T23:13:37;96805.53;;;20.23;56.25
30081;BME280;16902;50.816;12.828;2023-10-13T23:18:39;96794.19;;;20.07;56.95
30081;BME280;16902;50.816;12.828;2023-10-13T23:23:42;96788.13;;;20.12;56.63
30081;BME280;16902;50.816;12.828;2023-10-13T23:28:51;96782.03;;;20.21;55.99
30081;BME280;16902;50.816;12.828;2023-10-13T23:33:54;96787.56;;;20.25;55.91
30081;BME280;16902;50.816;12.828;2023-10-13T23:38:56;96790.75;;;20.22;55.63
30081;BME280;16902;50.816;12.828;2023-10-13T23:43:58;96785.47;;;20.07;56.65
30081;BME280;16902;50.816;12.828;2023-10-13T23:49:00;96785.72;;;20.20;54.58
30081;BME280;16902;50.816;12.828;2023-10-13T23:54:02;96780.97;;;20.53;53.04
30081;BME280;16902;50.816;12.828;2023-10-13T23:59:19;96783.09;;;20.56;53.25
